createdAt,value
2018-04-27T00:02:33.200Z,9.20
2018-04-27T00:07:36.508Z,9.20
2018-04-27T00:12:39.891Z,9.30
2018-04-27T00:17:43.205Z,9.40
2018-04-27T00:22:46.840Z,9.60
2018-04-27T00:27:50.119Z,9.60
2018-04-27T00:32:53.942Z,9.60
2018-04-27T00:37:57.603Z,9.50
2018-04-27T00:43:01.519Z,9.50
2018-04-27T00:48:04.886Z,9.40
2018-04-27T00:53:14.464Z,9.40
2018-04-27T00:58:17.748Z,9.40
2018-04-27T01:03:20.985Z,9.10
2018-04-27T01:08:24.288Z,9.10
2018-04-27T01:13:27.550Z,9.10
2018-04-27T01:18:30.979Z,9.00
2018-04-27T01:23:34.799Z,8.90
2018-04-27T01:28:38.441Z,8.70
2018-04-27T01:33:41.744Z,8.70
2018-04-27T01:38:45.128Z,8.50
2018-04-27T01:43:48.539Z,8.20
2018-04-27T01:48:52.174Z,8.20
2018-04-27T01:53:55.974Z,8.30
2018-04-27T01:58:59.306Z,8.30
2018-04-27T02:04:02.691Z,8.30
2018-04-27T02:09:06.511Z,8.50
2018-04-27T02:14:09.771Z,8.50
2018-04-27T02:19:12.985Z,8.40
2018-04-27T02:24:16.324Z,8.50
2018-04-27T02:29:19.546Z,8.50
2018-04-27T02:34:22.804Z,8.60
2018-04-27T02:39:26.017Z,8.60
2018-04-27T02:44:29.307Z,8.60
2018-04-27T02:49:32.491Z,8.70
2018-04-27T02:54:35.718Z,8.70
2018-04-27T02:59:38.936Z,8.60
2018-04-27T03:04:42.265Z,8.60
2018-04-27T03:09:45.524Z,8.40
2018-04-27T03:14:48.744Z,8.40
2018-04-27T03:19:51.947Z,8.30
2018-04-27T03:24:55.206Z,8.20
2018-04-27T03:29:58.824Z,8.20
2018-04-27T03:35:03.054Z,8.10
2018-04-27T03:40:06.727Z,8.00
2018-04-27T03:45:09.944Z,8.00
2018-04-27T03:50:13.166Z,7.90
2018-04-27T03:55:16.387Z,7.90
2018-04-27T04:00:32.054Z,7.80
2018-04-27T04:05:35.487Z,7.80
2018-04-27T04:10:38.797Z,7.80
2018-04-27T04:15:43.019Z,7.70
2018-04-27T04:20:46.243Z,7.60
2018-04-27T04:25:49.978Z,7.50
2018-04-27T04:30:53.204Z,7.50
2018-04-27T04:35:56.411Z,7.50
2018-04-27T04:40:59.618Z,7.50
2018-04-27T04:46:02.930Z,7.50
2018-04-27T04:51:06.140Z,7.60
2018-04-27T04:56:09.339Z,7.70
2018-04-27T05:01:12.546Z,7.80
2018-04-27T05:06:15.880Z,7.90
2018-04-27T05:11:19.122Z,8.00
2018-04-27T05:16:22.343Z,8.20
2018-04-27T05:21:25.645Z,8.40
2018-04-27T05:26:28.854Z,8.50
2018-04-27T05:31:32.083Z,8.70
2018-04-27T05:36:35.312Z,9.00
2018-04-27T05:41:38.651Z,9.10
2018-04-27T05:46:41.912Z,9.20
2018-04-27T05:51:45.151Z,9.40
2018-04-27T05:56:48.784Z,9.90
2018-04-27T06:01:52.004Z,9.90
2018-04-27T06:06:55.211Z,10.00
2018-04-27T06:11:58.435Z,10.30
2018-04-27T06:17:01.651Z,10.50
2018-04-27T06:22:04.885Z,10.60
2018-04-27T06:27:08.542Z,11.00
2018-04-27T06:32:11.840Z,11.00
2018-04-27T06:37:15.486Z,11.30
2018-04-27T06:42:18.759Z,11.30
2018-04-27T06:47:22.023Z,11.50
2018-04-27T06:52:25.245Z,11.60
2018-04-27T06:57:28.888Z,11.90
2018-04-27T07:02:32.267Z,11.90
2018-04-27T07:07:36.178Z,12.20
2018-04-27T07:12:39.453Z,12.20
2018-04-27T07:17:42.798Z,12.40
2018-04-27T07:22:46.419Z,12.30
2018-04-27T07:27:50.156Z,12.20
2018-04-27T07:32:53.438Z,12.30
2018-04-27T07:37:56.722Z,12.40
2018-04-27T07:43:00.385Z,12.40
2018-04-27T07:48:03.635Z,12.40
2018-04-27T07:53:06.923Z,12.50
2018-04-27T07:58:10.280Z,12.60
2018-04-27T08:03:13.967Z,12.50
2018-04-27T08:08:17.213Z,12.50
2018-04-27T08:13:20.940Z,13.10
2018-04-27T08:18:24.589Z,13.30
2018-04-27T08:23:27.849Z,13.20
2018-04-27T08:28:31.481Z,13.40
2018-04-27T08:33:35.603Z,13.40
2018-04-27T08:38:39.222Z,13.00
2018-04-27T08:43:42.529Z,13.00
2018-04-27T08:48:46.144Z,13.20
2018-04-27T08:53:49.392Z,13.20
2018-04-27T08:58:52.645Z,13.10
2018-04-27T09:03:56.346Z,13.80
2018-04-27T09:08:59.578Z,13.80
2018-04-27T09:14:02.834Z,13.90
2018-04-27T11:37:43.983Z,13.50
2018-04-27T11:42:47.602Z,21.40
2018-04-27T11:47:51.490Z,23.90
2018-04-27T11:52:55.130Z,24.90
2018-04-27T11:57:58.420Z,24.90
2018-04-27T12:03:01.745Z,25.90
2018-04-27T12:08:05.390Z,27.60
2018-04-27T12:13:08.615Z,27.60
2018-04-27T12:18:11.975Z,27.50
2018-04-27T12:23:15.669Z,28.50
2018-04-27T12:28:18.963Z,28.50
2018-04-27T12:33:22.202Z,28.20
2018-04-27T12:38:25.920Z,29.50
2018-04-27T12:43:29.596Z,28.60
2018-04-27T12:48:33.055Z,28.60
2018-04-27T12:53:36.796Z,27.10
2018-04-27T12:58:40.496Z,27.10
2018-04-27T13:03:45.201Z,28.80
2018-04-27T13:08:48.530Z,28.80
2018-04-27T13:13:52.259Z,29.90
2018-04-27T13:18:56.088Z,29.80
2018-04-27T13:23:59.809Z,28.30
2018-04-27T13:29:03.101Z,28.30
2018-04-27T13:34:06.720Z,29.10
2018-04-27T13:39:10.460Z,29.20
2018-04-27T13:44:13.832Z,29.20
2018-04-27T13:49:17.112Z,27.90
2018-04-27T13:54:20.471Z,25.50
2018-04-27T13:59:23.752Z,23.90
2018-04-27T14:04:27.000Z,23.20
2018-04-27T14:09:30.404Z,24.40
2018-04-27T14:14:33.682Z,25.60
2018-04-27T14:19:37.408Z,24.60
2018-04-27T14:24:41.917Z,24.40
2018-04-27T14:29:45.129Z,24.40
2018-04-27T14:34:48.357Z,23.50
2018-04-27T14:39:51.590Z,23.70
2018-04-27T14:44:54.955Z,23.70
2018-04-27T14:49:58.182Z,24.00
2018-04-27T14:55:01.876Z,24.80
2018-04-27T15:00:05.161Z,24.80
2018-04-27T15:05:08.394Z,24.90
2018-04-27T15:10:12.106Z,25.00
2018-04-27T15:15:15.517Z,25.00
2018-04-27T15:20:18.846Z,25.00
2018-04-27T15:25:22.490Z,26.30
2018-04-27T15:30:25.848Z,26.30
2018-04-27T15:35:29.159Z,25.60
2018-04-27T15:40:32.445Z,25.00
2018-04-27T15:45:35.882Z,24.80
2018-04-27T15:50:39.694Z,28.00
2018-04-27T15:55:42.929Z,28.00
2018-04-27T16:00:46.187Z,27.80
2018-04-27T16:05:49.577Z,28.00
2018-04-27T16:10:52.924Z,29.30
2018-04-27T16:15:56.167Z,29.00
2018-04-27T16:20:59.400Z,27.60
2018-04-27T16:26:02.671Z,27.50
2018-04-27T16:31:05.983Z,27.90
2018-04-27T16:36:09.239Z,25.30
2018-04-27T16:41:12.501Z,25.60
2018-04-27T16:46:15.792Z,24.80
2018-04-27T16:51:19.078Z,26.70
2018-04-27T16:56:22.364Z,27.00
2018-04-27T17:01:25.691Z,23.80
2018-04-27T17:06:28.930Z,22.10
2018-04-27T17:11:32.203Z,21.00
2018-04-27T17:16:35.511Z,20.40
2018-04-27T17:21:38.867Z,20.00
2018-04-27T17:26:42.150Z,19.80
2018-04-27T17:31:45.845Z,19.30
2018-04-27T17:36:49.170Z,19.20
2018-04-27T17:41:52.667Z,19.10
2018-04-27T17:46:55.955Z,19.00
2018-04-27T17:51:59.309Z,18.80
2018-04-27T17:57:02.678Z,18.60
2018-04-27T18:02:06.260Z,18.40
2018-04-27T18:07:10.183Z,17.80
2018-04-27T18:12:13.663Z,17.80
2018-04-27T18:17:17.354Z,17.60
2018-04-27T18:22:20.869Z,17.60
2018-04-27T18:27:24.859Z,17.40
2018-04-27T18:32:28.311Z,17.40
2018-04-27T18:37:32.262Z,17.10
2018-04-27T18:42:35.622Z,17.10
2018-04-27T18:47:38.848Z,17.00
2018-04-27T18:52:42.653Z,16.90
2018-04-27T18:57:46.113Z,16.90
2018-04-27T19:02:49.410Z,16.80
2018-04-27T19:07:56.575Z,16.50
2018-04-27T19:12:59.901Z,15.90
2018-04-27T19:18:05.464Z,15.70
2018-04-27T19:23:10.408Z,15.70
2018-04-27T19:28:14.491Z,15.70
2018-04-27T19:33:18.129Z,15.70
2018-04-27T19:38:21.644Z,15.60
2018-04-27T19:43:26.028Z,15.50
2018-04-27T19:48:30.616Z,15.50
2018-04-27T19:53:34.438Z,15.10
2018-04-27T19:58:38.146Z,14.60
2018-04-27T20:03:41.663Z,14.60
2018-04-27T20:08:45.251Z,14.40
2018-04-27T20:13:48.600Z,14.30
2018-04-27T20:18:52.049Z,14.40
2018-04-27T20:23:55.423Z,14.40
2018-04-27T20:28:58.748Z,14.40
2018-04-27T20:34:02.034Z,14.30
2018-04-27T20:39:05.697Z,14.20
2018-04-27T20:44:09.051Z,14.20
2018-04-27T20:49:12.368Z,14.10
2018-04-27T20:54:16.078Z,14.20
2018-04-27T20:59:19.352Z,14.20
2018-04-27T21:04:22.628Z,14.30
2018-04-27T21:09:25.872Z,14.20
2018-04-27T21:14:29.214Z,14.00
2018-04-27T21:19:32.871Z,13.80
2018-04-27T21:24:36.125Z,13.80
2018-04-27T21:29:39.367Z,13.80
2018-04-27T21:34:42.601Z,13.80
2018-04-27T21:39:45.841Z,13.80
2018-04-27T21:44:51.942Z,13.80
2018-04-27T21:49:55.218Z,13.70
2018-04-27T21:54:58.867Z,13.70
2018-04-27T22:00:05.792Z,13.70
2018-04-27T22:05:13.788Z,13.50
2018-04-27T22:10:17.063Z,13.30
2018-04-27T22:15:20.707Z,12.90
2018-04-27T22:20:26.886Z,12.90
2018-04-27T22:25:30.813Z,12.80
2018-04-27T22:30:43.752Z,12.70
2018-04-27T22:35:47.800Z,12.70
2018-04-27T22:40:51.108Z,12.60
2018-04-27T22:46:06.833Z,12.30
2018-04-27T22:51:14.015Z,12.30
2018-04-27T22:56:17.281Z,12.10
2018-04-27T23:01:20.568Z,12.00
2018-04-27T23:06:24.038Z,12.10
2018-04-27T23:11:27.464Z,12.20
2018-04-27T23:16:30.771Z,12.20
2018-04-27T23:21:37.953Z,12.50
2018-04-27T23:26:41.242Z,12.70
2018-04-27T23:31:44.491Z,12.60
2018-04-27T23:36:48.163Z,12.70
2018-04-27T23:41:51.431Z,12.70
2018-04-27T23:46:54.712Z,12.80
2018-04-27T23:51:57.969Z,12.80
2018-04-27T23:57:02.249Z,12.90
